createdAt,value
2022-11-13T00:00:22.437Z,12.63
2022-11-13T00:02:48.917Z,12.57
2022-11-13T00:05:15.526Z,12.75
2022-11-13T00:07:42.041Z,12.67
2022-11-13T00:10:09.015Z,12.71
2022-11-13T00:12:35.585Z,12.46
2022-11-13T00:15:02.057Z,12.28
2022-11-13T00:17:28.943Z,12.22
2022-11-13T00:19:55.514Z,12.21
2022-11-13T00:22:22.084Z,11.99
2022-11-13T00:24:48.565Z,12.20
2022-11-13T00:27:15.026Z,12.05
2022-11-13T00:29:41.513Z,12.06
2022-11-13T00:32:08.095Z,12.14
2022-11-13T00:34:47.012Z,11.78
2022-11-13T00:37:14.851Z,11.91
2022-11-13T00:39:41.299Z,12.04
2022-11-13T00:42:17.756Z,11.94
2022-11-13T00:44:44.308Z,12.06
2022-11-13T00:47:10.870Z,11.96
2022-11-13T00:49:37.350Z,11.70
2022-11-13T00:52:04.056Z,11.73
2022-11-13T00:54:30.492Z,11.91
2022-11-13T00:56:56.925Z,11.57
2022-11-13T00:59:23.364Z,11.74
2022-11-13T01:01:49.913Z,11.28
2022-11-13T01:04:16.361Z,11.63
2022-11-13T01:06:44.447Z,11.48
2022-11-13T01:09:10.894Z,11.64
2022-11-13T01:11:37.370Z,11.44
2022-11-13T01:14:03.830Z,11.64
2022-11-13T01:16:30.271Z,11.48
2022-11-13T01:18:57.216Z,11.79
2022-11-13T01:21:27.215Z,11.53
2022-11-13T01:23:54.685Z,11.63
2022-11-13T01:26:22.672Z,11.77
2022-11-13T01:28:49.559Z,11.83
2022-11-13T01:31:19.567Z,11.92
2022-11-13T01:33:47.397Z,11.89
2022-11-13T01:36:20.359Z,11.78
2022-11-13T01:38:47.017Z,11.94
2022-11-13T01:41:33.532Z,12.00
2022-11-13T01:44:00.745Z,11.96
2022-11-13T01:46:32.166Z,11.96
2022-11-13T01:49:18.370Z,11.98
2022-11-13T01:51:51.854Z,12.06
2022-11-13T01:54:25.828Z,12.01
2022-11-13T01:56:53.435Z,11.87
2022-11-13T01:59:29.723Z,11.59
2022-11-13T02:01:56.726Z,11.71
2022-11-13T02:04:23.529Z,11.62
2022-11-13T02:06:54.927Z,11.37
2022-11-13T02:09:25.143Z,11.52
2022-11-13T02:11:52.145Z,11.59
2022-11-13T02:14:20.417Z,11.56
2022-11-13T02:16:48.209Z,11.57
2022-11-13T02:19:38.730Z,10.95
2022-11-13T02:22:15.586Z,11.40
2022-11-13T02:24:45.471Z,11.50
2022-11-13T02:27:22.541Z,11.15
2022-11-13T02:29:49.051Z,10.78
2022-11-13T02:32:15.524Z,11.01
2022-11-13T02:34:42.101Z,11.19
2022-11-13T02:37:08.623Z,11.30
2022-11-13T02:39:35.257Z,11.14
2022-11-13T02:42:01.691Z,10.96
2022-11-13T02:44:28.149Z,11.08
2022-11-13T02:46:54.630Z,11.17
2022-11-13T02:49:21.074Z,11.07
2022-11-13T02:51:47.552Z,11.08
2022-11-13T02:54:16.959Z,11.03
2022-11-13T02:56:43.897Z,11.05
2022-11-13T02:59:10.427Z,10.84
2022-11-13T03:01:36.947Z,10.86
2022-11-13T03:04:03.662Z,10.15
2022-11-13T03:06:30.083Z,10.08
2022-11-13T03:08:56.506Z,10.08
2022-11-13T03:11:23.876Z,10.44
2022-11-13T03:13:50.350Z,10.54
2022-11-13T03:16:17.505Z,10.66
2022-11-13T03:18:43.989Z,10.73
2022-11-13T03:21:12.860Z,10.81
2022-11-13T03:23:40.380Z,10.75
2022-11-13T03:26:08.431Z,10.94
2022-11-13T03:28:35.720Z,10.97
2022-11-13T03:31:03.606Z,10.97
2022-11-13T03:33:30.364Z,10.78
2022-11-13T03:35:57.102Z,10.86
2022-11-13T03:38:24.096Z,10.87
2022-11-13T03:40:51.057Z,10.53
2022-11-13T03:43:17.958Z,10.51
2022-11-13T03:45:46.436Z,10.75
2022-11-13T03:48:14.305Z,10.76
2022-11-13T03:50:45.609Z,10.76
2022-11-13T03:53:12.807Z,10.87
2022-11-13T03:55:39.725Z,10.80
2022-11-13T03:58:06.280Z,10.95
2022-11-13T04:00:33.116Z,10.86
2022-11-13T04:02:59.558Z,10.46
2022-11-13T04:05:26.197Z,10.40
2022-11-13T04:07:52.723Z,10.83
2022-11-13T04:10:19.160Z,10.64
2022-11-13T04:12:45.731Z,10.89
2022-11-13T04:15:12.281Z,10.90
2022-11-13T04:17:38.749Z,10.89
2022-11-13T04:20:05.791Z,10.82
2022-11-13T04:22:32.327Z,10.89
2022-11-13T04:24:58.984Z,10.87
2022-11-13T04:27:25.450Z,10.61
2022-11-13T04:29:52.121Z,10.80
2022-11-13T04:32:18.562Z,10.66
2022-11-13T04:34:44.976Z,10.89
2022-11-13T04:37:12.664Z,10.82
2022-11-13T04:39:39.496Z,10.21
2022-11-13T04:42:24.629Z,10.40
2022-11-13T04:44:51.117Z,10.63
2022-11-13T04:47:17.587Z,10.69
2022-11-13T04:49:44.024Z,10.68
2022-11-13T04:52:10.473Z,10.75
2022-11-13T04:54:36.929Z,10.69
2022-11-13T04:57:03.452Z,10.59
2022-11-13T04:59:29.957Z,10.49
2022-11-13T05:01:56.893Z,10.63
2022-11-13T05:04:23.464Z,10.40
2022-11-13T05:06:50.002Z,10.63
2022-11-13T05:09:16.558Z,10.46
2022-11-13T05:11:43.038Z,10.40
2022-11-13T05:14:12.527Z,10.24
2022-11-13T05:16:39.130Z,10.08
2022-11-13T05:19:08.644Z,9.86
2022-11-13T05:21:36.317Z,9.43
2022-11-13T05:24:03.468Z,9.52
2022-11-13T05:26:30.316Z,9.83
2022-11-13T05:28:58.367Z,9.97
2022-11-13T05:31:25.709Z,9.95
2022-11-13T05:33:52.225Z,9.72
2022-11-13T05:36:19.751Z,9.71
2022-11-13T05:38:46.412Z,9.82
2022-11-13T05:41:18.512Z,9.67
2022-11-13T05:43:45.615Z,9.44
2022-11-13T05:46:17.138Z,9.67
2022-11-13T05:48:44.221Z,9.74
2022-11-13T05:51:19.903Z,9.75
2022-11-13T05:53:46.413Z,9.54
2022-11-13T05:56:32.197Z,9.67
2022-11-13T05:58:59.929Z,9.68
2022-11-13T06:01:38.051Z,9.66
2022-11-13T06:04:05.911Z,9.56
2022-11-13T06:06:32.850Z,9.83
2022-11-13T06:09:01.131Z,9.91
2022-11-13T06:11:29.438Z,9.87
2022-11-13T06:13:56.758Z,9.52
2022-11-13T06:16:26.421Z,9.56
2022-11-13T06:19:01.041Z,9.76
2022-11-13T06:21:29.807Z,9.67
2022-11-13T06:23:57.887Z,9.65
2022-11-13T06:26:30.235Z,9.69
2022-11-13T06:28:57.265Z,9.49
2022-11-13T06:31:26.227Z,9.32
2022-11-13T06:33:53.131Z,9.52
2022-11-13T06:36:24.650Z,9.76
2022-11-13T06:38:51.760Z,9.87
2022-11-13T06:41:21.485Z,9.90
2022-11-13T06:43:48.008Z,9.67
2022-11-13T06:46:19.722Z,9.73
2022-11-13T06:48:46.928Z,9.86
2022-11-13T06:51:16.715Z,9.96
2022-11-13T06:53:43.553Z,9.87
2022-11-13T06:56:10.499Z,10.00
2022-11-13T06:58:37.274Z,10.09
2022-11-13T07:01:08.397Z,10.14
2022-11-13T07:03:34.931Z,9.79
2022-11-13T07:06:06.498Z,10.02
2022-11-13T07:08:33.785Z,9.74
2022-11-13T07:11:00.587Z,9.85
2022-11-13T07:13:27.993Z,9.95
2022-11-13T07:15:54.727Z,9.74
2022-11-13T07:18:24.140Z,9.77
2022-11-13T07:20:50.861Z,9.91
2022-11-13T07:23:17.374Z,10.00
2022-11-13T07:25:43.940Z,9.93
2022-11-13T07:28:10.452Z,10.09
2022-11-13T07:30:37.130Z,10.00
2022-11-13T07:33:04.336Z,10.21
2022-11-13T07:35:31.205Z,10.33
2022-11-13T07:37:58.663Z,10.28
2022-11-13T07:40:26.038Z,10.48
2022-11-13T07:42:59.922Z,10.51
2022-11-13T07:45:28.090Z,10.55
2022-11-13T07:48:01.954Z,10.54
2022-11-13T07:50:30.070Z,10.55
2022-11-13T07:53:01.795Z,10.61
2022-11-13T07:55:28.597Z,10.72
2022-11-13T07:57:56.864Z,10.96
2022-11-13T08:00:24.145Z,11.17
2022-11-13T08:02:50.980Z,11.33
2022-11-13T08:05:17.448Z,11.53
2022-11-13T08:07:51.396Z,11.54
2022-11-13T08:10:19.528Z,11.78
2022-11-13T08:12:46.121Z,12.05
2022-11-13T08:15:13.722Z,12.37
2022-11-13T08:17:40.577Z,12.66
2022-11-13T08:20:08.133Z,13.13
2022-11-13T08:22:34.763Z,13.64
2022-11-13T08:25:01.239Z,13.72
2022-11-13T08:27:27.709Z,14.14
2022-11-13T08:29:54.193Z,14.52
2022-11-13T08:32:22.493Z,15.15
2022-11-13T08:34:49.277Z,15.70
2022-11-13T08:37:16.016Z,15.98
2022-11-13T08:39:42.870Z,16.44
2022-11-13T08:42:09.330Z,16.92
2022-11-13T08:44:35.806Z,17.30
2022-11-13T08:47:02.339Z,17.47
2022-11-13T08:49:28.841Z,17.77
2022-11-13T08:51:55.318Z,18.04
2022-11-13T08:54:21.848Z,18.34
2022-11-13T08:56:52.974Z,18.93
2022-11-13T08:59:23.661Z,19.08
2022-11-13T09:01:50.649Z,19.13
2022-11-13T09:04:17.136Z,19.62
2022-11-13T09:06:43.733Z,20.03
2022-11-13T09:09:10.250Z,20.23
2022-11-13T09:11:37.021Z,20.66
2022-11-13T09:14:03.508Z,22.11
2022-11-13T09:16:29.980Z,25.92
2022-11-13T09:18:56.461Z,30.43
2022-11-13T09:21:22.945Z,34.65
2022-11-13T09:23:49.519Z,38.12
2022-11-13T09:26:16.770Z,40.81
2022-11-13T09:28:43.676Z,43.51
2022-11-13T09:31:10.286Z,45.37
2022-11-13T09:33:36.812Z,46.99
2022-11-13T09:36:03.543Z,48.26
2022-11-13T09:38:31.949Z,48.73
2022-11-13T09:41:05.628Z,48.81
2022-11-13T09:43:38.589Z,49.88
2022-11-13T09:46:20.129Z,50.88
2022-11-13T09:49:16.859Z,51.85
2022-11-13T09:51:58.509Z,52.42
2022-11-13T09:54:26.277Z,52.61
2022-11-13T09:56:58.489Z,52.97
2022-11-13T09:59:34.756Z,53.39
2022-11-13T10:02:01.426Z,53.68
2022-11-13T10:04:43.972Z,53.81
2022-11-13T10:07:13.720Z,54.13
2022-11-13T10:10:01.688Z,54.19
2022-11-13T10:12:30.455Z,54.22
2022-11-13T10:15:01.192Z,54.79
2022-11-13T10:17:41.233Z,55.45
2022-11-13T10:20:13.197Z,55.70
2022-11-13T10:22:43.248Z,56.13
2022-11-13T10:25:12.657Z,56.53
2022-11-13T10:27:39.583Z,56.78
2022-11-13T10:30:14.026Z,56.85
2022-11-13T10:32:40.544Z,57.31
2022-11-13T10:35:07.065Z,57.43
2022-11-13T10:37:55.531Z,57.60
2022-11-13T10:40:30.793Z,57.13
2022-11-13T10:43:13.235Z,56.91
2022-11-13T10:45:40.237Z,56.85
2022-11-13T10:48:19.499Z,56.60
2022-11-13T10:50:53.580Z,56.04
2022-11-13T10:53:20.627Z,56.14
2022-11-13T10:55:50.688Z,56.23
2022-11-13T10:58:19.258Z,56.49
2022-11-13T11:00:48.994Z,56.77
2022-11-13T11:03:19.995Z,57.16
2022-11-13T11:06:00.761Z,57.48
2022-11-13T11:08:33.060Z,57.64
2022-11-13T11:11:20.388Z,57.94
2022-11-13T11:13:48.363Z,57.50
2022-11-13T11:16:20.328Z,57.41
2022-11-13T11:18:54.021Z,57.57
2022-11-13T11:21:23.840Z,57.45
2022-11-13T11:24:05.835Z,57.28
2022-11-13T11:26:41.208Z,57.10
2022-11-13T11:29:21.468Z,57.16
2022-11-13T11:31:58.275Z,57.51
2022-11-13T11:34:41.098Z,57.27
2022-11-13T11:37:14.562Z,57.09
2022-11-13T11:39:46.853Z,56.96
2022-11-13T11:42:39.525Z,57.16
2022-11-13T11:45:35.480Z,57.33
2022-11-13T11:48:04.194Z,57.50
2022-11-13T11:50:46.223Z,57.13
2022-11-13T11:53:48.623Z,56.78
2022-11-13T11:56:27.736Z,55.39
2022-11-13T11:59:09.622Z,55.53
2022-11-13T12:02:02.294Z,56.02
2022-11-13T12:04:34.943Z,55.56
2022-11-13T12:07:29.161Z,56.06
2022-11-13T12:10:07.613Z,56.29
2022-11-13T12:12:52.334Z,55.66
2022-11-13T12:15:26.183Z,52.85
2022-11-13T12:18:25.134Z,47.78
2022-11-13T12:21:19.307Z,41.59
2022-11-13T12:23:56.410Z,37.37
2022-11-13T12:26:37.672Z,34.11
2022-11-13T12:29:16.473Z,31.54
2022-11-13T12:31:47.162Z,29.81
2022-11-13T12:34:29.975Z,28.22
2022-11-13T12:36:57.960Z,27.15
2022-11-13T12:39:46.216Z,26.40
2022-11-13T12:42:34.319Z,25.74
2022-11-13T12:45:33.557Z,25.46
2022-11-13T12:48:09.286Z,24.82
2022-11-13T12:50:36.186Z,24.58
2022-11-13T12:53:08.655Z,24.07
2022-11-13T12:55:37.642Z,23.02
2022-11-13T12:58:29.969Z,22.40
2022-11-13T13:01:11.966Z,22.19
2022-11-13T13:03:41.410Z,22.12
2022-11-13T13:06:30.243Z,22.09
2022-11-13T13:08:59.565Z,21.71
2022-11-13T13:11:32.713Z,21.62
2022-11-13T13:14:37.779Z,21.67
2022-11-13T13:17:25.849Z,21.90
2022-11-13T13:20:22.351Z,22.15
2022-11-13T13:22:59.402Z,22.10
2022-11-13T13:25:34.387Z,22.68
2022-11-13T13:28:23.003Z,22.27
2022-11-13T13:31:24.979Z,22.15
2022-11-13T13:34:04.720Z,22.05
2022-11-13T13:36:56.150Z,21.95
2022-11-13T13:39:26.677Z,22.15
2022-11-13T13:41:57.805Z,22.37
2022-11-13T13:44:46.285Z,22.25
2022-11-13T13:47:28.995Z,22.13
2022-11-13T13:49:55.821Z,22.39
2022-11-13T13:52:30.633Z,21.66
2022-11-13T13:54:59.769Z,21.93
2022-11-13T13:57:26.747Z,21.94
2022-11-13T13:59:53.296Z,21.66
2022-11-13T14:02:24.618Z,21.50
2022-11-13T14:04:52.893Z,21.50
2022-11-13T14:07:29.558Z,21.10
2022-11-13T14:10:06.611Z,20.62
2022-11-13T14:12:33.088Z,20.73
2022-11-13T14:14:59.611Z,20.74
2022-11-13T14:17:26.136Z,20.40
2022-11-13T14:19:54.353Z,20.37
2022-11-13T14:22:21.291Z,20.51
2022-11-13T14:24:54.351Z,20.22
2022-11-13T14:27:23.780Z,20.46
2022-11-13T14:29:56.603Z,20.13
2022-11-13T14:32:26.633Z,20.34
2022-11-13T14:34:55.926Z,19.87
2022-11-13T14:37:31.574Z,20.00
2022-11-13T14:40:00.877Z,19.85
2022-11-13T14:42:36.530Z,19.74
2022-11-13T14:45:13.681Z,19.48
2022-11-13T14:47:40.277Z,19.43
2022-11-13T14:50:21.902Z,19.08
2022-11-13T14:53:08.818Z,18.93
2022-11-13T14:55:51.683Z,18.88
2022-11-13T14:58:35.625Z,18.65
2022-11-13T15:01:17.240Z,18.63
2022-11-13T15:03:45.175Z,18.50
2022-11-13T15:06:14.709Z,18.43
2022-11-13T15:08:41.443Z,18.37
2022-11-13T15:11:09.762Z,18.17
2022-11-13T15:13:36.428Z,18.23
2022-11-13T15:16:02.933Z,17.78
2022-11-13T15:18:29.414Z,18.15
2022-11-13T15:20:56.050Z,17.70
2022-11-13T15:23:24.319Z,17.99
2022-11-13T15:25:50.817Z,18.01
2022-11-13T15:28:17.315Z,17.80
2022-11-13T15:30:43.904Z,17.88
2022-11-13T15:33:14.200Z,17.57
2022-11-13T15:35:42.735Z,17.67
2022-11-13T15:38:12.429Z,17.72
2022-11-13T15:40:39.368Z,17.78
2022-11-13T15:43:06.561Z,17.73
2022-11-13T15:45:33.016Z,17.68
2022-11-13T15:47:59.445Z,17.62
2022-11-13T15:50:26.082Z,17.25
2022-11-13T15:52:53.122Z,17.44
2022-11-13T15:55:28.987Z,16.97
2022-11-13T15:57:55.981Z,17.13
2022-11-13T16:00:25.306Z,16.98
2022-11-13T16:02:55.392Z,16.79
2022-11-13T16:05:28.924Z,16.88
2022-11-13T16:07:55.817Z,16.79
2022-11-13T16:10:25.011Z,16.78
2022-11-13T16:12:52.580Z,16.70
2022-11-13T16:15:19.686Z,16.51
2022-11-13T16:17:56.988Z,16.42
2022-11-13T16:20:24.003Z,16.25
2022-11-13T16:22:50.702Z,15.95
2022-11-13T16:25:19.889Z,16.36
2022-11-13T16:27:46.426Z,16.34
2022-11-13T16:30:19.934Z,16.26
2022-11-13T16:32:46.522Z,16.34
2022-11-13T16:35:17.702Z,16.32
2022-11-13T16:37:44.222Z,16.17
2022-11-13T16:40:20.948Z,16.23
2022-11-13T16:42:47.545Z,16.18
2022-11-13T16:45:14.111Z,15.75
2022-11-13T16:47:41.004Z,15.85
2022-11-13T16:50:29.816Z,16.14
2022-11-13T16:52:56.739Z,16.02
2022-11-13T16:55:23.714Z,16.11
2022-11-13T16:57:50.409Z,15.78
2022-11-13T17:00:18.205Z,15.70
2022-11-13T17:02:44.983Z,15.64
2022-11-13T17:05:14.088Z,15.49
2022-11-13T17:07:41.148Z,15.36
2022-11-13T17:10:30.334Z,15.68
2022-11-13T17:12:57.812Z,15.64
2022-11-13T17:15:24.266Z,15.15
2022-11-13T17:17:50.838Z,15.27
2022-11-13T17:20:19.347Z,15.44
2022-11-13T17:22:48.530Z,14.87
2022-11-13T17:25:18.560Z,15.04
2022-11-13T17:27:45.042Z,15.31
2022-11-13T17:30:12.750Z,15.04
2022-11-13T17:32:39.485Z,15.36
2022-11-13T17:35:06.628Z,15.27
2022-11-13T17:37:33.964Z,15.01
2022-11-13T17:40:00.547Z,15.27
2022-11-13T17:42:28.600Z,15.18
2022-11-13T17:44:55.279Z,14.71
2022-11-13T17:47:22.346Z,14.95
2022-11-13T17:49:48.999Z,15.03
2022-11-13T17:52:15.611Z,14.93
2022-11-13T17:54:42.131Z,14.69
2022-11-13T17:57:10.223Z,14.75
2022-11-13T17:59:36.817Z,14.73
2022-11-13T18:02:03.372Z,14.46
2022-11-13T18:04:29.895Z,14.59
2022-11-13T18:06:56.412Z,14.45
2022-11-13T18:09:22.999Z,14.49
2022-11-13T18:11:49.470Z,14.01
2022-11-13T18:14:15.982Z,13.70
2022-11-13T18:16:42.513Z,13.33
2022-11-13T18:19:09.369Z,13.61
2022-11-13T18:21:36.241Z,13.01
2022-11-13T18:24:08.329Z,13.16
2022-11-13T18:26:35.127Z,13.57
2022-11-13T18:29:01.890Z,13.42
2022-11-13T18:31:29.560Z,13.66
2022-11-13T18:33:58.778Z,13.81
2022-11-13T18:36:26.371Z,13.81
2022-11-13T18:38:53.080Z,13.68
2022-11-13T18:41:21.635Z,13.58
2022-11-13T18:43:49.830Z,13.48
2022-11-13T18:46:18.554Z,13.19
2022-11-13T18:48:45.978Z,13.43
2022-11-13T18:51:20.820Z,13.35
2022-11-13T18:53:49.008Z,13.36
2022-11-13T18:56:19.091Z,13.24
2022-11-13T18:58:46.888Z,13.17
2022-11-13T19:01:20.467Z,13.53
2022-11-13T19:04:08.185Z,13.11
2022-11-13T19:06:36.689Z,13.82
2022-11-13T19:09:10.546Z,13.62
2022-11-13T19:11:37.170Z,13.24
2022-11-13T19:14:04.234Z,12.96
2022-11-13T19:16:33.765Z,13.30
2022-11-13T19:19:03.587Z,13.38
2022-11-13T19:21:31.491Z,13.15
2022-11-13T19:23:58.694Z,13.52
2022-11-13T19:26:26.103Z,13.33
2022-11-13T19:28:53.564Z,13.22
2022-11-13T19:31:22.489Z,13.25
2022-11-13T19:33:55.285Z,13.20
2022-11-13T19:36:30.001Z,13.25
2022-11-13T19:38:56.895Z,13.08
2022-11-13T19:41:23.917Z,13.16
2022-11-13T19:43:50.468Z,13.26
2022-11-13T19:46:18.114Z,12.99
2022-11-13T19:48:45.866Z,13.03
2022-11-13T19:51:20.592Z,13.24
2022-11-13T19:53:47.331Z,13.37
2022-11-13T19:56:16.073Z,13.25
2022-11-13T19:58:46.988Z,13.27
2022-11-13T20:01:16.935Z,13.27
2022-11-13T20:03:43.737Z,13.33
2022-11-13T20:06:13.350Z,13.38
2022-11-13T20:08:39.937Z,13.37
2022-11-13T20:11:10.128Z,13.24
2022-11-13T20:13:38.307Z,13.16
2022-11-13T20:16:06.543Z,13.26
2022-11-13T20:18:33.106Z,12.95
2022-11-13T20:21:00.077Z,13.27
2022-11-13T20:23:26.620Z,13.26
2022-11-13T20:25:59.168Z,12.83
2022-11-13T20:28:27.541Z,12.93
2022-11-13T20:31:19.686Z,13.30
2022-11-13T20:33:47.417Z,13.27
2022-11-13T20:36:14.859Z,13.03
2022-11-13T20:38:44.104Z,13.28
2022-11-13T20:41:11.539Z,13.10
2022-11-13T20:43:38.606Z,12.98
2022-11-13T20:46:09.953Z,12.68
2022-11-13T20:48:36.766Z,12.86
2022-11-13T20:51:17.687Z,12.68
2022-11-13T20:53:44.263Z,12.59
2022-11-13T20:56:10.934Z,12.68
2022-11-13T20:58:37.527Z,12.31
2022-11-13T21:01:05.873Z,12.20
2022-11-13T21:03:35.977Z,12.24
2022-11-13T21:06:07.447Z,12.42
2022-11-13T21:08:35.147Z,12.58
2022-11-13T21:11:02.698Z,12.70
2022-11-13T21:13:30.554Z,12.41
2022-11-13T21:15:57.011Z,12.50
2022-11-13T21:18:23.751Z,12.59
2022-11-13T21:20:50.688Z,12.74
2022-11-13T21:23:17.203Z,12.32
2022-11-13T21:25:43.713Z,12.58
2022-11-13T21:28:10.297Z,12.28
2022-11-13T21:30:36.815Z,12.22
2022-11-13T21:33:03.866Z,12.36
2022-11-13T21:35:30.423Z,12.43
2022-11-13T21:37:56.890Z,11.99
2022-11-13T21:40:23.609Z,11.84
2022-11-13T21:42:50.156Z,11.85
2022-11-13T21:45:16.677Z,11.81
2022-11-13T21:47:43.386Z,12.04
2022-11-13T21:50:10.261Z,11.86
2022-11-13T21:52:36.828Z,11.65
2022-11-13T21:55:03.662Z,11.90
2022-11-13T21:57:30.223Z,11.84
2022-11-13T21:59:56.671Z,11.93
2022-11-13T22:02:23.240Z,11.93
2022-11-13T22:04:50.859Z,12.00
2022-11-13T22:07:17.815Z,11.47
2022-11-13T22:09:44.459Z,11.83
2022-11-13T22:12:11.023Z,11.61
2022-11-13T22:14:37.684Z,11.58
2022-11-13T22:17:04.157Z,11.55
2022-11-13T22:19:35.695Z,11.76
2022-11-13T22:22:02.890Z,11.97
2022-11-13T22:24:29.686Z,11.98
2022-11-13T22:26:56.914Z,12.04
2022-11-13T22:29:23.369Z,12.08
2022-11-13T22:31:49.911Z,12.15
2022-11-13T22:34:16.379Z,12.05
2022-11-13T22:36:42.803Z,11.98
2022-11-13T22:39:09.509Z,11.63
2022-11-13T22:41:36.488Z,11.91
2022-11-13T22:44:08.078Z,11.90
2022-11-13T22:46:36.020Z,11.83
2022-11-13T22:49:04.766Z,11.84
2022-11-13T22:51:35.076Z,11.69
2022-11-13T22:54:03.645Z,11.86
2022-11-13T22:56:31.778Z,11.76
2022-11-13T22:59:00.777Z,10.78
2022-11-13T23:01:32.398Z,11.72
2022-11-13T23:04:01.331Z,11.61
2022-11-13T23:06:30.280Z,11.54
2022-11-13T23:08:57.141Z,11.60
2022-11-13T23:11:27.367Z,11.56
2022-11-13T23:13:58.680Z,11.47
2022-11-13T23:16:26.553Z,11.14
2022-11-13T23:18:54.905Z,11.37
2022-11-13T23:21:21.874Z,11.37
2022-11-13T23:23:48.419Z,11.20
2022-11-13T23:26:15.656Z,11.52
2022-11-13T23:28:42.157Z,11.54
2022-11-13T23:31:09.050Z,11.47
2022-11-13T23:33:35.661Z,11.59
2022-11-13T23:36:02.555Z,11.58
2022-11-13T23:38:29.357Z,11.50
2022-11-13T23:40:57.177Z,11.51
2022-11-13T23:43:47.378Z,11.21
2022-11-13T23:46:11.803Z,11.31
2022-11-13T23:48:40.147Z,10.93
2022-11-13T23:51:07.347Z,11.11
2022-11-13T23:53:33.816Z,11.33
2022-11-13T23:56:00.427Z,10.95
2022-11-13T23:58:27.514Z,11.34
